Ashburn, VA

7:56 AM EDT on March 27, 2015 (GMT -0400)
One Loudoun | | Change Station
CLOSE
Current Station
Personal Weather Station
Location: Ashburn, VA
Elevation: 236 ft
Nearby Weather Stations

Elev 236 ft 39.05 °N, 77.46 °W | Updated 10 minutes ago

Mostly Cloudy
Mostly Cloudy
41.8 °F
Feels Like 42 °F
N
2.0
Wind Variable Wind from North

Today
High -- | Low -- °F
--% Chance of Precip.
Yesterday
High -- | Low -- °F
Precip. -- in
7:02 AM 7:28 PM
First Quarter, 52% visible
Pressure 29.81 in
Visibility 10.0 miles
Clouds Mostly Cloudy 2800 ft
Overcast 3500 ft
Windchill 42 °F
Dew Point 39 °F
Humidity 88%
Rainfall 0.49 in
Snow Depth Not available.
UV 0.0 out of 12
Pollen 4.60 out of 12
Air Quality Not available.
Flu Activity Not available.
METAR KIAD 271152Z 36009KT 10SM -RA BKN028 OVC035 06/02 A2980 RMK AO2 SLP092 P0003 60053 70075 T00560017 10078 20056 55003

More Conditions Fewer Conditions

Pressure 29.81 in
Visibility 10.0 miles
Clouds Mostly Cloudy 2800 ft
Overcast 3500 ft
Windchill 42 °F
Dew Point 39 °F
Humidity 88%
Rainfall 0.49 in
Snow Depth Not available.
UV 0.0 out of 12
Pollen 4.60 out of 12
Air Quality Not available.
Flu Activity Not available.
METAR KIAD 271152Z 36009KT 10SM -RA BKN028 OVC035 06/02 A2980 RMK AO2 SLP092 P0003 60053 70075 T00560017 10078 20056 55003

More Conditions Fewer Conditions

Nowcast | as of 6:57 am EDT on March 27, 2015

A band of moderate to locally heavy rain will affect areas from the Virginia Piedmont to the Baltimore and Washington D.C. Metropolitan areas through mid-morning. Additional rain amounts will average one quarter to one half of an inch through 9 am. Expect rainy conditions during the morning commute. Allow extra time for travel...and be alert for ponding of water on roadways.

×

10-Day Weather Forecast

Almanac

Astronomy

Mar. 27, 2015 Rise Set
Actual Time
Civil Twilight
Nautical Twilight
Astronomical Twilight
Moon
Length of Visible Light
Length of Day
Tomorrow will be .
, % of the Moon is Illuminated

Today's Extremes

State Highs State Lows

Community

WunderPhotos

Upload Photos

1,808,710 photos uploaded!

WunderBlogs® & News

Nearby

Air Quality

  Air Quality AQ Index Pollutant
Not available.

Snow Depth

Station Depth Elevation

Earthquake Activity

City Distance Mag. Time & Date
Minimum magnitude displayed is 2.5.

Coastal Water Temperatures

Place Temperature

Stations

Nearby Weather Stations

Station Location Temp. Windchill Dew Point Humidity Wind Precip. Elev Updated Type